createdAt,value
2023-02-02T00:00:04.389Z,100053.84
2023-02-02T00:03:08.999Z,100047.41
2023-02-02T00:06:11.750Z,100044.13
2023-02-02T00:09:17.264Z,100047.56
2023-02-02T00:12:19.730Z,100061.50
2023-02-02T00:15:22.371Z,100044.97
2023-02-02T00:18:24.972Z,100040.88
2023-02-02T00:21:28.564Z,100040.09
2023-02-02T00:24:31.162Z,100024.56
2023-02-02T00:27:33.875Z,100009.84
2023-02-02T00:30:36.500Z,100008.03
2023-02-02T00:33:39.163Z,100025.41
2023-02-02T00:36:42.496Z,100020.31
2023-02-02T00:39:45.209Z,100033.41
2023-02-02T00:42:50.470Z,100032.78
2023-02-02T00:45:53.050Z,100028.31
2023-02-02T00:48:55.667Z,100025.03
2023-02-02T00:51:59.168Z,100027.03
2023-02-02T00:55:01.641Z,100045.34
2023-02-02T00:58:04.950Z,100051.59
2023-02-02T01:01:18.526Z,100052.59
2023-02-02T01:04:21.318Z,100038.88
2023-02-02T01:07:23.863Z,100043.66
2023-02-02T01:10:26.826Z,100047.81
2023-02-02T01:13:29.946Z,100038.03
2023-02-02T01:16:32.751Z,100044.50
2023-02-02T01:19:36.892Z,100053.44
2023-02-02T01:22:39.385Z,100044.84
2023-02-02T01:25:41.925Z,100056.38
2023-02-02T01:28:44.698Z,100066.66
2023-02-02T01:31:47.674Z,100064.31
2023-02-02T01:34:50.262Z,100052.41
2023-02-02T01:37:52.802Z,100049.25
2023-02-02T01:40:57.343Z,100053.38
2023-02-02T01:44:05.581Z,100050.72
2023-02-02T01:47:08.538Z,100047.09
2023-02-02T01:50:14.916Z,100035.03
2023-02-02T01:53:19.824Z,100025.94
2023-02-02T01:56:30.757Z,100031.22
2023-02-02T01:59:35.094Z,100023.44
2023-02-02T02:02:39.845Z,100025.28
2023-02-02T02:05:53.766Z,100013.19
2023-02-02T02:09:05.827Z,100013.19
2023-02-02T02:12:16.055Z,100012.25
2023-02-02T02:15:38.740Z,99991.78
2023-02-02T02:18:51.367Z,99977.03
2023-02-02T02:22:28.808Z,99984.34
2023-02-02T02:25:55.608Z,99989.63
2023-02-02T02:29:32.633Z,100016.41
2023-02-02T02:32:49.396Z,100013.75
2023-02-02T02:36:17.896Z,100017.22
2023-02-02T02:39:41.655Z,100011.59
2023-02-02T02:42:49.721Z,100020.69
2023-02-02T02:45:52.948Z,100003.19
2023-02-02T02:48:58.629Z,99995.28
2023-02-02T02:52:01.302Z,100002.53
2023-02-02T02:55:12.680Z,99998.53
2023-02-02T02:58:24.442Z,100003.38
2023-02-02T03:02:01.470Z,100004.34
2023-02-02T03:05:37.781Z,100001.25
2023-02-02T03:08:48.208Z,99987.00
2023-02-02T03:11:50.809Z,99996.91
2023-02-02T03:14:53.262Z,100007.00
2023-02-02T03:17:55.808Z,100018.22
2023-02-02T03:20:59.084Z,100015.94
2023-02-02T03:24:01.892Z,100024.03
2023-02-02T03:27:04.568Z,100033.44
2023-02-02T03:30:12.431Z,100036.75
2023-02-02T03:33:15.898Z,100047.81
2023-02-02T03:36:18.377Z,100018.41
2023-02-02T03:39:20.893Z,100013.78
2023-02-02T03:42:24.577Z,100013.28
2023-02-02T03:45:28.547Z,100023.22
2023-02-02T03:48:32.083Z,100027.03
2023-02-02T03:51:34.568Z,100028.38
2023-02-02T03:54:37.036Z,100017.47
2023-02-02T03:57:39.573Z,100018.97
2023-02-02T04:00:42.146Z,100012.50
2023-02-02T04:03:46.377Z,100004.75
2023-02-02T04:06:48.858Z,100005.25
2023-02-02T04:09:52.063Z,100017.34
2023-02-02T04:12:54.652Z,100031.03
2023-02-02T04:16:01.479Z,100034.50
2023-02-02T04:19:04.926Z,100022.94
2023-02-02T04:22:07.672Z,100016.00
2023-02-02T04:25:10.110Z,100030.53
2023-02-02T04:28:12.637Z,100035.81
2023-02-02T04:31:15.316Z,100040.91
2023-02-02T04:34:18.014Z,100040.56
2023-02-02T04:37:20.559Z,100045.66
2023-02-02T04:40:23.405Z,100050.63
2023-02-02T04:43:25.857Z,100034.28
2023-02-02T04:46:28.702Z,100055.88
2023-02-02T04:49:31.855Z,100050.75
2023-02-02T04:52:35.237Z,100057.19
2023-02-02T04:55:38.931Z,100069.84
2023-02-02T04:58:42.787Z,100066.72
2023-02-02T05:01:45.980Z,100069.19
2023-02-02T05:04:48.453Z,100062.63
2023-02-02T05:07:50.992Z,100061.31
2023-02-02T05:10:53.584Z,100070.78
2023-02-02T05:13:56.004Z,100080.22
2023-02-02T05:16:58.636Z,100093.59
2023-02-02T05:20:01.208Z,100085.53
2023-02-02T05:23:03.756Z,100083.88
2023-02-02T05:26:06.308Z,100090.47
2023-02-02T05:29:09.444Z,100084.72
2023-02-02T05:32:11.943Z,100099.22
2023-02-02T05:35:14.541Z,100092.81
2023-02-02T05:38:17.369Z,100092.97
2023-02-02T05:41:20.209Z,100085.69
2023-02-02T05:44:22.743Z,100103.03
2023-02-02T05:47:25.278Z,100099.22
2023-02-02T05:50:27.786Z,100113.75
2023-02-02T05:53:37.789Z,100126.16
2023-02-02T05:56:40.286Z,100120.00
2023-02-02T05:59:42.790Z,100128.59
2023-02-02T06:02:45.395Z,100119.50
2023-02-02T06:05:48.089Z,100111.91
2023-02-02T06:08:50.785Z,100121.63
2023-02-02T06:11:53.354Z,100102.34
2023-02-02T06:14:55.951Z,100101.19
2023-02-02T06:17:58.935Z,100132.03
2023-02-02T06:21:03.061Z,100094.75
2023-02-02T06:24:05.911Z,100089.78
2023-02-02T06:27:08.458Z,100111.56
2023-02-02T06:30:11.684Z,100105.25
2023-02-02T06:33:14.312Z,100114.44
2023-02-02T06:36:16.925Z,100115.16
2023-02-02T06:39:20.794Z,100123.25
2023-02-02T06:42:23.329Z,100125.84
2023-02-02T06:45:27.044Z,100131.47
2023-02-02T06:48:29.585Z,100139.41
2023-02-02T06:51:32.087Z,100136.91
2023-02-02T06:54:34.607Z,100134.16
2023-02-02T06:57:37.090Z,100146.41
2023-02-02T07:00:39.682Z,100142.94
2023-02-02T07:03:42.499Z,100155.19
2023-02-02T07:06:45.341Z,100155.03
2023-02-02T07:09:48.132Z,100176.00
2023-02-02T07:13:00.970Z,100163.81
2023-02-02T07:16:09.480Z,100172.75
2023-02-02T07:19:12.054Z,100176.69
2023-02-02T07:22:16.101Z,100182.31
2023-02-02T07:25:18.724Z,100178.69
2023-02-02T07:28:28.551Z,100189.28
2023-02-02T07:31:36.012Z,100190.63
2023-02-02T07:34:42.800Z,100197.06
2023-02-02T07:37:51.651Z,100213.22
2023-02-02T07:40:54.158Z,100203.59
2023-02-02T07:43:56.871Z,100207.53
2023-02-02T07:46:59.336Z,100211.16
2023-02-02T07:50:02.179Z,100207.97
2023-02-02T07:53:04.946Z,100220.72
2023-02-02T07:56:10.574Z,100214.72
2023-02-02T07:59:13.285Z,100222.84
2023-02-02T08:02:16.551Z,100227.75
2023-02-02T08:05:19.693Z,100224.22
2023-02-02T08:08:22.304Z,100234.41
2023-02-02T08:11:26.666Z,100223.56
2023-02-02T08:14:29.551Z,100232.53
2023-02-02T08:17:32.100Z,100235.00
2023-02-02T08:20:34.705Z,100232.78
2023-02-02T08:23:39.222Z,100211.53
2023-02-02T08:26:41.850Z,100225.47
2023-02-02T08:29:44.469Z,100196.53
2023-02-02T08:32:47.189Z,100196.66
2023-02-02T08:35:49.724Z,100210.00
2023-02-02T08:38:52.767Z,100211.56
2023-02-02T08:41:56.637Z,100217.72
2023-02-02T08:46:02.150Z,100189.38
2023-02-02T08:48:21.909Z,100213.84
2023-02-02T08:51:24.486Z,100217.44
2023-02-02T08:54:27.362Z,100227.19
2023-02-02T08:57:32.671Z,100230.25
2023-02-02T09:00:35.252Z,100222.06
2023-02-02T09:03:40.368Z,100229.59
2023-02-02T09:06:43.521Z,100222.31
2023-02-02T09:09:46.016Z,100241.66
2023-02-02T09:12:48.550Z,100259.88
2023-02-02T09:15:51.060Z,100231.41
2023-02-02T09:18:54.507Z,100238.47
2023-02-02T09:21:57.160Z,100248.84
2023-02-02T09:24:59.689Z,100252.47
2023-02-02T09:28:02.212Z,100246.81
2023-02-02T09:31:05.027Z,100240.91
2023-02-02T09:34:10.509Z,100266.31
2023-02-02T09:37:13.017Z,100243.66
2023-02-02T09:40:19.382Z,100246.41
2023-02-02T09:44:00.652Z,100253.63
2023-02-02T09:47:21.295Z,100251.34
2023-02-02T09:50:55.722Z,100257.03
2023-02-02T09:54:05.158Z,100261.97
2023-02-02T09:57:16.938Z,100255.50
2023-02-02T10:00:25.739Z,100269.59
2023-02-02T10:03:39.774Z,100270.97
2023-02-02T10:06:54.213Z,100250.22
2023-02-02T10:10:06.258Z,100259.59
2023-02-02T10:13:20.626Z,100242.69
2023-02-02T10:16:24.535Z,100235.94
2023-02-02T10:19:29.360Z,100244.16
2023-02-02T10:22:34.332Z,100237.22
2023-02-02T10:25:41.396Z,100245.66
2023-02-02T10:29:06.940Z,100247.00
2023-02-02T10:32:35.592Z,100238.44
2023-02-02T10:36:02.258Z,100238.88
2023-02-02T10:39:18.141Z,100239.63
2023-02-02T10:42:42.184Z,100240.72
2023-02-02T10:45:47.943Z,100234.69
2023-02-02T10:49:09.023Z,100237.34
2023-02-02T10:52:11.491Z,100233.47
2023-02-02T10:55:32.805Z,100238.69
2023-02-02T10:58:52.780Z,100237.59
2023-02-02T11:01:55.451Z,100256.56
2023-02-02T11:05:17.368Z,100244.13
2023-02-02T11:08:23.063Z,100258.41
2023-02-02T11:11:37.429Z,100265.56
2023-02-02T11:15:21.180Z,100240.06
2023-02-02T11:18:31.011Z,100242.44
2023-02-02T11:21:35.263Z,100255.84
2023-02-02T11:24:49.681Z,100248.97
2023-02-02T11:27:52.841Z,100239.56
2023-02-02T11:30:55.655Z,100246.03
2023-02-02T11:34:21.860Z,100248.41
2023-02-02T11:37:25.069Z,100250.03
2023-02-02T11:40:38.267Z,100253.97
2023-02-02T11:43:52.827Z,100256.81
2023-02-02T11:46:57.510Z,100239.25
2023-02-02T11:50:04.738Z,100253.53
2023-02-02T11:53:30.821Z,100271.75
2023-02-02T11:56:36.820Z,100261.84
2023-02-02T11:59:42.092Z,100254.16
2023-02-02T12:02:49.512Z,100259.53
2023-02-02T12:05:52.397Z,100256.34
2023-02-02T12:09:01.444Z,100254.16
2023-02-02T12:12:25.680Z,100247.81
2023-02-02T12:16:09.587Z,100244.22
2023-02-02T12:19:43.329Z,100258.91
2023-02-02T12:23:03.666Z,100250.13
2023-02-02T12:26:19.726Z,100239.50
2023-02-02T12:29:31.089Z,100242.97
2023-02-02T12:32:48.114Z,100241.13
2023-02-02T12:35:56.826Z,100243.78
2023-02-02T12:39:38.410Z,100247.75
2023-02-02T12:43:21.505Z,100237.94
2023-02-02T12:46:33.981Z,100241.41
2023-02-02T12:50:02.897Z,100243.00
2023-02-02T12:53:27.117Z,100230.38
2023-02-02T12:56:49.136Z,100240.69
2023-02-02T13:00:34.805Z,100247.50
2023-02-02T13:04:01.003Z,100241.72
2023-02-02T13:07:30.643Z,100240.88
2023-02-02T13:10:43.793Z,100244.72
2023-02-02T13:13:47.140Z,100245.38
2023-02-02T13:16:54.550Z,100253.53
2023-02-02T13:20:04.556Z,100251.69
2023-02-02T13:23:18.037Z,100253.34
2023-02-02T13:26:27.099Z,100254.34
2023-02-02T13:29:48.103Z,100255.28
2023-02-02T13:32:53.602Z,100257.41
2023-02-02T13:36:02.515Z,100260.16
2023-02-02T13:39:16.333Z,100254.09
2023-02-02T13:42:43.621Z,100262.13
2023-02-02T13:46:30.454Z,100272.47
2023-02-02T13:49:41.201Z,100260.56
2023-02-02T13:53:23.969Z,100264.50
2023-02-02T13:57:03.173Z,100266.97
2023-02-02T14:00:33.561Z,100277.25
2023-02-02T14:03:41.923Z,100277.25
2023-02-02T14:07:07.032Z,100270.94
2023-02-02T14:10:28.217Z,100277.13
2023-02-02T14:14:05.126Z,100291.53
2023-02-02T14:17:13.628Z,100269.91
2023-02-02T14:21:04.443Z,100277.09
2023-02-02T14:24:28.589Z,100282.22
2023-02-02T14:27:31.117Z,100274.06
2023-02-02T14:30:38.550Z,100274.63
2023-02-02T14:33:47.620Z,100277.25
2023-02-02T14:36:59.822Z,100279.09
2023-02-02T14:40:16.461Z,100285.22
2023-02-02T14:43:46.466Z,100277.44
2023-02-02T14:46:49.395Z,100290.25
2023-02-02T14:49:57.705Z,100281.75
2023-02-02T14:53:06.888Z,100292.59
2023-02-02T14:56:17.451Z,100297.06
2023-02-02T14:59:24.924Z,100295.25
2023-02-02T15:02:36.796Z,100297.66
2023-02-02T15:05:46.119Z,100296.47
2023-02-02T15:09:23.481Z,100309.22
2023-02-02T15:12:44.731Z,100305.91
2023-02-02T15:15:53.430Z,100309.88
2023-02-02T15:19:21.210Z,100304.41
2023-02-02T15:22:32.426Z,100307.84
2023-02-02T15:26:00.922Z,100317.53
2023-02-02T15:29:13.718Z,100314.88
2023-02-02T15:32:22.407Z,100321.78
2023-02-02T15:35:30.487Z,100336.59
2023-02-02T15:38:40.121Z,100334.44
2023-02-02T15:41:44.235Z,100340.72
2023-02-02T15:44:46.793Z,100348.88
2023-02-02T15:47:49.465Z,100355.56
2023-02-02T15:50:56.989Z,100360.84
2023-02-02T15:53:59.589Z,100358.03
2023-02-02T15:57:03.472Z,100366.34
2023-02-02T16:00:24.895Z,100367.69
2023-02-02T16:03:37.280Z,100371.31
2023-02-02T16:06:40.548Z,100378.81
2023-02-02T16:09:44.294Z,100391.75
2023-02-02T16:12:48.325Z,100393.22
2023-02-02T16:15:59.103Z,100404.50
2023-02-02T16:19:09.219Z,100409.97
2023-02-02T16:22:18.329Z,100399.22
2023-02-02T16:25:24.140Z,100400.56
2023-02-02T16:28:27.561Z,100400.91
2023-02-02T16:31:31.541Z,100411.97
2023-02-02T16:34:40.344Z,100420.78
2023-02-02T16:37:43.133Z,100428.06
2023-02-02T16:40:45.661Z,100435.38
2023-02-02T16:43:48.389Z,100442.66
2023-02-02T16:46:51.090Z,100445.81
2023-02-02T16:50:08.673Z,100452.25
2023-02-02T16:53:22.738Z,100458.91
2023-02-02T16:56:43.740Z,100460.53
2023-02-02T16:59:51.144Z,100455.25
2023-02-02T17:03:04.806Z,100467.50
2023-02-02T17:06:08.091Z,100473.13
2023-02-02T17:09:32.444Z,100471.00
2023-02-02T17:12:37.484Z,100481.09
2023-02-02T17:15:40.619Z,100491.34
2023-02-02T17:18:43.593Z,100483.09
2023-02-02T17:21:49.500Z,100495.00
2023-02-02T17:24:52.852Z,100494.84
2023-02-02T17:27:58.628Z,100502.97
2023-02-02T17:31:05.869Z,100488.75
2023-02-02T17:34:12.161Z,100504.47
2023-02-02T17:37:15.544Z,100517.41
2023-02-02T17:40:19.910Z,100506.81
2023-02-02T17:43:22.556Z,100497.66
2023-02-02T17:46:28.420Z,100516.06
2023-02-02T17:49:31.302Z,100527.78
2023-02-02T17:52:34.391Z,100527.09
2023-02-02T17:55:45.119Z,100533.69
2023-02-02T17:58:47.689Z,100539.03
2023-02-02T18:01:54.332Z,100536.69
2023-02-02T18:04:57.926Z,100547.44
2023-02-02T18:08:00.994Z,100541.00
2023-02-02T18:11:04.003Z,100542.78
2023-02-02T18:14:06.544Z,100548.03
2023-02-02T18:17:09.161Z,100554.28
2023-02-02T18:20:16.665Z,100548.00
2023-02-02T18:23:19.676Z,100550.41
2023-02-02T18:26:23.337Z,100564.47
2023-02-02T18:29:26.336Z,100557.53
2023-02-02T18:32:29.105Z,100553.75
2023-02-02T18:35:31.826Z,100566.00
2023-02-02T18:38:35.358Z,100563.91
2023-02-02T18:41:38.139Z,100564.38
2023-02-02T18:44:40.941Z,100562.66
2023-02-02T18:47:43.646Z,100558.66
2023-02-02T18:50:46.152Z,100570.38
2023-02-02T18:53:49.404Z,100562.59
2023-02-02T18:56:52.056Z,100579.91
2023-02-02T18:59:54.769Z,100586.38
2023-02-02T19:02:57.996Z,100574.41
2023-02-02T19:06:19.271Z,100577.34
2023-02-02T19:09:22.352Z,100584.28
2023-02-02T19:12:28.495Z,100582.25
2023-02-02T19:15:37.174Z,100592.91
2023-02-02T19:18:39.812Z,100584.66
2023-02-02T19:21:43.576Z,100594.84
2023-02-02T19:24:47.139Z,100591.88
2023-02-02T19:27:49.890Z,100586.72
2023-02-02T19:30:55.887Z,100592.50
2023-02-02T19:34:01.164Z,100596.16
2023-02-02T19:37:31.302Z,100599.59
2023-02-02T19:40:34.290Z,100595.13
2023-02-02T19:43:37.143Z,100614.63
2023-02-02T19:46:43.993Z,100598.59
2023-02-02T19:49:47.089Z,100610.84
2023-02-02T19:52:50.898Z,100619.91
2023-02-02T19:55:53.907Z,100627.19
2023-02-02T19:58:56.698Z,100632.78
2023-02-02T20:02:22.036Z,100645.81
2023-02-02T20:05:32.788Z,100641.13
2023-02-02T20:08:43.747Z,100653.34
2023-02-02T20:11:51.413Z,100645.03
2023-02-02T20:14:54.706Z,100655.84
2023-02-02T20:18:00.662Z,100652.75
2023-02-02T20:21:07.710Z,100652.25
2023-02-02T20:24:31.308Z,100649.31
2023-02-02T20:27:34.778Z,100664.03
2023-02-02T20:30:37.336Z,100666.19
2023-02-02T20:33:48.551Z,100686.69
2023-02-02T20:36:53.091Z,100691.41
2023-02-02T20:40:01.644Z,100692.47
2023-02-02T20:43:04.925Z,100695.75
2023-02-02T20:46:09.275Z,100698.91
2023-02-02T20:49:13.767Z,100702.13
2023-02-02T20:52:23.417Z,100696.41
2023-02-02T20:55:27.201Z,100699.53
2023-02-02T20:58:30.494Z,100706.47
2023-02-02T21:01:33.448Z,100718.53
2023-02-02T21:04:36.868Z,100718.44
2023-02-02T21:07:39.607Z,100728.16
2023-02-02T21:10:42.254Z,100741.97
2023-02-02T21:13:45.388Z,100738.19
2023-02-02T21:16:48.140Z,100745.66
2023-02-02T21:19:51.681Z,100750.09
2023-02-02T21:22:56.145Z,100742.44
2023-02-02T21:25:58.679Z,100745.22
2023-02-02T21:29:01.200Z,100736.75
2023-02-02T21:32:04.089Z,100747.28
2023-02-02T21:35:06.960Z,100755.31
2023-02-02T21:38:15.228Z,100748.44
2023-02-02T21:41:17.916Z,100748.41
2023-02-02T21:44:22.561Z,100758.81
2023-02-02T21:47:46.352Z,100774.19
2023-02-02T21:50:49.019Z,100762.13
2023-02-02T21:53:52.122Z,100778.22
2023-02-02T21:56:55.414Z,100779.44
2023-02-02T21:59:58.010Z,100783.31
2023-02-02T22:03:00.740Z,100787.09
2023-02-02T22:06:21.258Z,100784.47
2023-02-02T22:09:26.918Z,100792.84
2023-02-02T22:12:30.081Z,100788.06
2023-02-02T22:15:34.545Z,100787.88
2023-02-02T22:18:37.081Z,100787.84
2023-02-02T22:21:39.538Z,100788.44
2023-02-02T22:25:00.037Z,100796.66
2023-02-02T22:28:17.129Z,100793.88
2023-02-02T22:31:19.912Z,100812.69
2023-02-02T22:34:22.711Z,100825.19
2023-02-02T22:37:25.507Z,100836.31
2023-02-02T22:40:29.154Z,100821.88
2023-02-02T22:43:31.953Z,100829.66
2023-02-02T22:46:34.580Z,100843.09
2023-02-02T22:49:37.064Z,100847.72
2023-02-02T22:52:39.836Z,100837.31
2023-02-02T22:55:43.495Z,100849.00
2023-02-02T22:58:46.794Z,100852.22
2023-02-02T23:01:49.347Z,100848.91
2023-02-02T23:04:51.895Z,100852.41
2023-02-02T23:07:55.371Z,100860.88
2023-02-02T23:10:57.885Z,100855.06
2023-02-02T23:14:00.339Z,100860.91
2023-02-02T23:17:02.864Z,100868.69
2023-02-02T23:20:07.945Z,100860.63
2023-02-02T23:23:10.564Z,100865.06
2023-02-02T23:26:13.328Z,100880.91
2023-02-02T23:29:16.311Z,100884.53
2023-02-02T23:32:19.313Z,100883.53
2023-02-02T23:35:21.786Z,100873.69
2023-02-02T23:38:24.304Z,100885.34
2023-02-02T23:41:27.174Z,100895.91
2023-02-02T23:44:29.697Z,100899.94
2023-02-02T23:47:34.361Z,100904.38
2023-02-02T23:50:40.045Z,100918.84
2023-02-02T23:53:43.053Z,100917.56
2023-02-02T23:56:45.637Z,100929.53
2023-02-02T23:59:48.143Z,100933.69
